createdAt,value
2024-02-07T00:00:25.895Z,3.47
2024-02-07T00:02:29.257Z,4.30
2024-02-07T00:04:32.983Z,7.70
2024-02-07T00:06:35.887Z,6.00
2024-02-07T00:08:41.271Z,5.32
2024-02-07T00:10:44.885Z,3.38
2024-02-07T00:12:48.307Z,6.15
2024-02-07T00:14:50.782Z,6.78
2024-02-07T00:16:54.204Z,6.97
2024-02-07T00:18:56.738Z,5.05
2024-02-07T00:21:01.008Z,5.60
2024-02-07T00:23:08.397Z,5.03
2024-02-07T00:25:13.168Z,4.93
2024-02-07T00:27:16.484Z,4.70
2024-02-07T00:29:20.361Z,5.60
2024-02-07T00:31:24.370Z,3.90
2024-02-07T00:33:27.729Z,4.88
2024-02-07T00:35:31.279Z,9.32
2024-02-07T00:37:34.996Z,6.03
2024-02-07T00:39:39.238Z,8.50
2024-02-07T00:41:43.825Z,6.65
2024-02-07T00:43:47.306Z,6.30
2024-02-07T00:45:52.321Z,17.75
2024-02-07T00:47:56.809Z,18.08
2024-02-07T00:50:00.449Z,20.27
2024-02-07T00:52:04.453Z,12.27
2024-02-07T00:54:09.703Z,12.48
2024-02-07T00:56:13.054Z,13.23
2024-02-07T00:58:19.057Z,9.07
2024-02-07T01:00:25.170Z,12.35
2024-02-07T01:02:27.648Z,9.32
2024-02-07T01:04:31.004Z,8.73
2024-02-07T01:06:34.513Z,10.70
2024-02-07T01:08:37.909Z,15.07
2024-02-07T01:10:43.310Z,13.38
2024-02-07T01:12:46.696Z,12.43
2024-02-07T01:14:51.361Z,6.47
2024-02-07T01:16:54.798Z,15.43
2024-02-07T01:18:58.124Z,14.90
2024-02-07T01:21:01.537Z,13.57
2024-02-07T01:23:05.280Z,6.85
2024-02-07T01:25:10.123Z,7.50
2024-02-07T01:27:13.919Z,7.30
2024-02-07T01:29:17.238Z,8.40
2024-02-07T01:31:23.484Z,6.30
2024-02-07T01:33:27.047Z,6.57
2024-02-07T01:35:32.436Z,5.28
2024-02-07T01:37:35.792Z,12.70
2024-02-07T01:39:38.051Z,12.50
2024-02-07T01:41:55.348Z,13.88
2024-02-07T01:43:58.647Z,13.95
2024-02-07T01:46:02.658Z,8.82
2024-02-07T01:48:09.841Z,9.38
2024-02-07T01:50:14.447Z,10.70
2024-02-07T01:52:22.556Z,7.55
2024-02-07T01:54:26.784Z,8.65
2024-02-07T01:56:30.905Z,12.65
2024-02-07T01:58:36.261Z,9.82
2024-02-07T02:00:38.902Z,8.77
2024-02-07T02:02:45.565Z,6.47
2024-02-07T02:04:50.250Z,15.40
2024-02-07T02:06:54.546Z,14.18
2024-02-07T02:08:59.220Z,17.33
2024-02-07T02:11:09.768Z,16.85
2024-02-07T02:13:12.565Z,16.25
2024-02-07T02:15:16.844Z,13.45
2024-02-07T02:17:20.191Z,7.78
2024-02-07T02:19:24.189Z,4.15
2024-02-07T02:21:39.239Z,4.00
2024-02-07T02:24:25.310Z,3.85
2024-02-07T02:26:51.090Z,6.30
2024-02-07T02:29:10.875Z,5.00
2024-02-07T02:31:18.292Z,5.75
2024-02-07T02:33:24.724Z,4.03
2024-02-07T02:35:29.708Z,3.20
2024-02-07T02:37:32.161Z,4.30
2024-02-07T02:39:35.489Z,4.65
2024-02-07T02:41:38.800Z,3.92
2024-02-07T02:43:42.552Z,3.40
2024-02-07T02:45:46.261Z,2.88
2024-02-07T02:47:51.027Z,3.42
2024-02-07T02:49:55.581Z,3.25
2024-02-07T02:51:59.049Z,3.00
2024-02-07T02:54:04.047Z,3.20
2024-02-07T02:56:10.782Z,3.05
2024-02-07T02:58:25.649Z,3.35
2024-02-07T03:00:36.622Z,3.00
2024-02-07T03:02:41.804Z,2.70
2024-02-07T03:04:50.231Z,2.95
2024-02-07T03:07:01.036Z,3.25
2024-02-07T03:09:20.719Z,3.10
2024-02-07T03:11:24.911Z,3.20
2024-02-07T03:13:29.379Z,2.85
2024-02-07T03:15:33.436Z,2.92
2024-02-07T03:17:38.026Z,3.08
2024-02-07T03:19:41.969Z,3.10
2024-02-07T03:21:47.785Z,3.03
2024-02-07T03:23:50.909Z,2.75
2024-02-07T03:25:54.337Z,3.10
2024-02-07T03:27:56.737Z,3.40
2024-02-07T03:30:00.331Z,2.70
2024-02-07T03:32:04.021Z,2.95
2024-02-07T03:34:07.962Z,2.85
2024-02-07T03:36:14.139Z,3.10
2024-02-07T03:38:19.449Z,2.92
2024-02-07T03:40:23.394Z,4.10
2024-02-07T03:42:27.505Z,3.47
2024-02-07T03:44:29.805Z,2.92
2024-02-07T03:46:33.432Z,2.78
2024-02-07T03:48:40.969Z,2.70
2024-02-07T03:50:44.944Z,3.42
2024-02-07T03:52:49.961Z,2.92
2024-02-07T03:54:54.933Z,2.95
2024-02-07T03:56:58.220Z,3.13
2024-02-07T03:59:00.768Z,3.17
2024-02-07T04:01:04.649Z,2.70
2024-02-07T04:03:10.357Z,3.85
2024-02-07T04:05:13.036Z,7.22
2024-02-07T04:07:16.601Z,6.55
2024-02-07T04:09:20.159Z,6.25
2024-02-07T04:11:25.479Z,6.10
2024-02-07T04:13:27.773Z,6.07
2024-02-07T04:15:48.473Z,4.97
2024-02-07T04:18:13.643Z,4.20
2024-02-07T04:20:35.114Z,8.85
2024-02-07T04:22:56.026Z,4.82
2024-02-07T04:25:17.097Z,2.92
2024-02-07T04:27:39.161Z,3.50
2024-02-07T04:30:00.906Z,2.95
2024-02-07T04:32:21.559Z,3.15
2024-02-07T04:34:42.299Z,3.05
2024-02-07T04:37:02.974Z,3.13
2024-02-07T04:39:25.382Z,2.72
2024-02-07T04:41:46.182Z,3.05
2024-02-07T04:44:08.715Z,3.55
2024-02-07T04:46:29.782Z,2.70
2024-02-07T04:48:50.673Z,3.25
2024-02-07T04:51:11.653Z,2.90
2024-02-07T04:53:32.402Z,3.05
2024-02-07T04:55:53.126Z,2.67
2024-02-07T04:58:15.325Z,2.72
2024-02-07T05:00:38.065Z,2.58
2024-02-07T05:02:58.724Z,2.25
2024-02-07T05:05:19.529Z,2.88
2024-02-07T05:07:41.683Z,3.10
2024-02-07T05:10:02.398Z,2.95
2024-02-07T05:12:23.757Z,2.85
2024-02-07T05:14:44.538Z,2.67
2024-02-07T05:16:49.485Z,3.20
2024-02-07T05:18:52.828Z,3.00
2024-02-07T05:20:56.281Z,3.17
2024-02-07T05:22:58.609Z,3.60
2024-02-07T05:25:03.542Z,2.70
2024-02-07T05:27:08.474Z,3.85
2024-02-07T05:29:16.857Z,5.03
2024-02-07T05:31:20.112Z,2.78
2024-02-07T05:33:24.885Z,2.83
2024-02-07T05:35:28.479Z,2.50
2024-02-07T05:37:32.609Z,3.05
2024-02-07T05:39:36.589Z,3.25
2024-02-07T05:41:40.379Z,2.70
2024-02-07T05:43:43.702Z,2.75
2024-02-07T05:45:47.046Z,2.35
2024-02-07T05:47:50.368Z,2.70
2024-02-07T05:49:55.376Z,3.65
2024-02-07T05:52:02.103Z,4.78
2024-02-07T05:54:06.975Z,6.53
2024-02-07T05:56:10.898Z,5.65
2024-02-07T05:58:15.177Z,5.95
2024-02-07T06:00:21.254Z,5.28
2024-02-07T06:02:23.720Z,3.65
2024-02-07T06:04:27.378Z,5.05
2024-02-07T06:06:32.095Z,6.10
2024-02-07T06:08:36.752Z,6.43
2024-02-07T06:10:41.662Z,8.55
2024-02-07T06:12:46.335Z,13.85
2024-02-07T06:14:49.784Z,6.03
2024-02-07T06:16:53.063Z,7.43
2024-02-07T06:18:56.505Z,6.65
2024-02-07T06:20:59.957Z,4.72
2024-02-07T06:23:05.120Z,4.20
2024-02-07T06:25:10.079Z,4.57
2024-02-07T06:27:14.084Z,5.20
2024-02-07T06:29:17.366Z,3.85
2024-02-07T06:31:21.491Z,3.95
2024-02-07T06:33:23.986Z,3.33
2024-02-07T06:35:27.578Z,4.30
2024-02-07T06:37:31.025Z,3.55
2024-02-07T06:39:34.714Z,5.00
2024-02-07T06:41:37.966Z,4.07
2024-02-07T06:43:41.335Z,4.53
2024-02-07T06:45:44.550Z,7.15
2024-02-07T06:47:47.290Z,6.10
2024-02-07T06:49:51.469Z,11.18
2024-02-07T06:51:54.888Z,6.30
2024-02-07T06:53:57.254Z,5.63
2024-02-07T06:56:02.044Z,4.00
2024-02-07T06:58:05.726Z,5.40
2024-02-07T07:00:10.760Z,3.15
2024-02-07T07:02:14.639Z,3.65
2024-02-07T07:04:17.072Z,2.80
2024-02-07T07:06:20.502Z,2.97
2024-02-07T07:08:23.927Z,2.67
2024-02-07T07:10:28.120Z,3.25
2024-02-07T07:12:33.084Z,3.38
2024-02-07T07:14:41.209Z,2.85
2024-02-07T07:16:45.683Z,3.53
2024-02-07T07:18:50.775Z,2.92
2024-02-07T07:20:54.317Z,3.28
2024-02-07T07:23:07.536Z,3.13
2024-02-07T07:25:18.758Z,3.13
2024-02-07T07:27:22.066Z,3.35
2024-02-07T07:29:26.788Z,2.50
2024-02-07T07:31:31.699Z,3.47
2024-02-07T07:33:35.507Z,3.20
2024-02-07T07:35:38.992Z,2.60
2024-02-07T07:37:41.486Z,3.67
2024-02-07T07:39:44.859Z,3.10
2024-02-07T07:41:49.210Z,3.50
2024-02-07T07:43:53.504Z,3.42
2024-02-07T07:45:58.282Z,4.65
2024-02-07T07:48:00.722Z,6.07
2024-02-07T07:50:08.678Z,4.97
2024-02-07T07:52:12.922Z,3.67
2024-02-07T07:54:16.342Z,3.05
2024-02-07T07:56:19.643Z,2.90
2024-02-07T07:58:27.148Z,2.10
2024-02-07T08:00:35.177Z,4.50
2024-02-07T08:02:41.565Z,2.80
2024-02-07T08:04:45.063Z,2.63
2024-02-07T08:06:49.007Z,2.65
2024-02-07T08:08:51.469Z,3.83
2024-02-07T08:10:54.733Z,3.20
2024-02-07T08:12:57.931Z,3.10
2024-02-07T08:15:01.220Z,2.85
2024-02-07T08:17:05.040Z,2.47
2024-02-07T08:19:10.134Z,2.67
2024-02-07T08:21:13.408Z,3.17
2024-02-07T08:23:16.828Z,2.78
2024-02-07T08:25:22.506Z,2.40
2024-02-07T08:27:27.153Z,3.08
2024-02-07T08:29:31.434Z,3.20
2024-02-07T08:31:34.744Z,2.47
2024-02-07T08:33:38.955Z,3.25
2024-02-07T08:35:43.946Z,3.85
2024-02-07T08:37:47.772Z,4.25
2024-02-07T08:39:51.056Z,4.03
2024-02-07T08:41:55.861Z,3.55
2024-02-07T08:43:59.924Z,3.30
2024-02-07T08:46:02.231Z,2.83
2024-02-07T08:48:07.436Z,3.42
2024-02-07T08:50:11.884Z,2.85
2024-02-07T08:52:16.636Z,2.80
2024-02-07T08:54:20.244Z,2.63
2024-02-07T08:56:24.024Z,2.97
2024-02-07T08:58:27.390Z,3.05
2024-02-07T09:00:30.878Z,2.25
2024-02-07T09:02:34.250Z,2.40
2024-02-07T09:04:37.760Z,2.30
2024-02-07T09:06:41.116Z,2.35
2024-02-07T09:08:45.819Z,2.00
2024-02-07T09:10:49.150Z,1.85
2024-02-07T09:12:52.441Z,2.15
2024-02-07T09:14:56.395Z,2.58
2024-02-07T09:17:00.636Z,2.10
2024-02-07T09:19:03.987Z,2.60
2024-02-07T09:21:07.368Z,2.20
2024-02-07T09:23:10.676Z,2.20
2024-02-07T09:25:14.785Z,2.53
2024-02-07T09:27:19.931Z,2.95
2024-02-07T09:29:23.914Z,2.50
2024-02-07T09:31:27.384Z,1.92
2024-02-07T09:33:30.941Z,1.92
2024-02-07T09:35:34.332Z,2.28
2024-02-07T09:37:38.073Z,1.85
2024-02-07T09:39:41.484Z,1.95
2024-02-07T09:41:48.236Z,2.05
2024-02-07T09:43:57.381Z,1.98
2024-02-07T09:46:01.680Z,2.15
2024-02-07T09:48:20.261Z,2.72
2024-02-07T09:50:24.940Z,2.00
2024-02-07T09:52:32.623Z,2.05
2024-02-07T09:54:36.081Z,2.33
2024-02-07T09:56:40.598Z,1.80
2024-02-07T09:58:45.934Z,2.35
2024-02-07T10:00:52.693Z,2.17
2024-02-07T10:02:57.219Z,1.92
2024-02-07T10:05:06.460Z,2.25
2024-02-07T10:07:13.439Z,2.30
2024-02-07T10:09:18.321Z,2.40
2024-02-07T10:11:23.702Z,1.90
2024-02-07T10:13:27.417Z,1.95
2024-02-07T10:15:33.161Z,2.53
2024-02-07T10:17:36.499Z,1.75
2024-02-07T10:19:40.770Z,2.08
2024-02-07T10:21:44.085Z,1.90
2024-02-07T10:23:49.579Z,1.90
2024-02-07T10:25:53.752Z,1.77
2024-02-07T10:28:04.728Z,1.75
2024-02-07T10:30:10.143Z,2.17
2024-02-07T10:32:21.925Z,1.80
2024-02-07T10:34:25.556Z,1.67
2024-02-07T10:36:29.091Z,2.38
2024-02-07T10:38:35.353Z,1.83
2024-02-07T10:40:40.636Z,2.75
2024-02-07T10:42:44.026Z,1.77
2024-02-07T10:44:47.376Z,2.20
2024-02-07T10:46:59.918Z,1.80
2024-02-07T10:49:05.725Z,1.70
2024-02-07T10:51:09.221Z,1.88
2024-02-07T10:53:12.944Z,2.20
2024-02-07T10:55:16.770Z,1.70
2024-02-07T10:57:26.790Z,2.00
2024-02-07T10:59:32.162Z,1.80
2024-02-07T11:01:35.736Z,1.80
2024-02-07T11:03:39.988Z,1.85
2024-02-07T11:05:44.637Z,1.73
2024-02-07T11:07:49.426Z,1.70
2024-02-07T11:09:54.716Z,1.90
2024-02-07T11:11:59.085Z,1.70
2024-02-07T11:14:06.781Z,1.90
2024-02-07T11:16:10.402Z,2.78
2024-02-07T11:18:14.641Z,2.90
2024-02-07T11:20:19.308Z,2.72
2024-02-07T11:22:30.326Z,2.28
2024-02-07T11:24:36.018Z,2.65
2024-02-07T11:26:39.864Z,2.00
2024-02-07T11:28:43.795Z,2.30
2024-02-07T11:30:50.424Z,2.20
2024-02-07T11:32:53.592Z,1.95
2024-02-07T11:35:03.228Z,1.85
2024-02-07T11:37:10.765Z,2.88
2024-02-07T11:39:18.317Z,1.70
2024-02-07T11:41:21.804Z,1.77
2024-02-07T11:43:25.652Z,1.88
2024-02-07T11:45:29.798Z,1.90
2024-02-07T11:47:38.458Z,2.30
2024-02-07T11:49:42.525Z,2.45
2024-02-07T11:51:46.023Z,2.40
2024-02-07T11:53:49.263Z,1.90
2024-02-07T11:55:54.283Z,2.22
2024-02-07T11:57:58.333Z,1.95
2024-02-07T12:00:03.288Z,2.47
2024-02-07T12:02:08.318Z,2.30
2024-02-07T12:04:11.763Z,1.80
2024-02-07T12:06:15.294Z,2.05
2024-02-07T12:08:19.675Z,1.88
2024-02-07T12:10:23.445Z,2.10
2024-02-07T12:12:28.727Z,1.67
2024-02-07T12:14:32.006Z,2.53
2024-02-07T12:16:36.304Z,2.50
2024-02-07T12:18:39.640Z,2.28
2024-02-07T12:20:43.126Z,2.65
2024-02-07T12:22:48.673Z,1.67
2024-02-07T12:24:53.337Z,1.83
2024-02-07T12:26:56.677Z,2.22
2024-02-07T12:29:07.489Z,1.83
2024-02-07T12:31:10.968Z,2.10
2024-02-07T12:33:14.420Z,1.90
2024-02-07T12:35:19.581Z,2.10
2024-02-07T12:37:23.416Z,3.15
2024-02-07T12:39:26.836Z,2.60
2024-02-07T12:41:30.099Z,1.83
2024-02-07T12:43:33.393Z,1.67
2024-02-07T12:45:38.061Z,2.55
2024-02-07T12:47:42.564Z,2.50
2024-02-07T12:49:45.574Z,2.00
2024-02-07T12:51:49.641Z,2.40
2024-02-07T12:53:53.187Z,1.58
2024-02-07T12:55:56.769Z,1.50
2024-02-07T12:58:02.361Z,2.13
2024-02-07T13:00:13.553Z,2.70
2024-02-07T13:02:19.192Z,1.48
2024-02-07T13:04:22.719Z,2.10
2024-02-07T13:06:26.562Z,1.60
2024-02-07T13:08:28.968Z,1.45
2024-02-07T13:10:32.515Z,1.90
2024-02-07T13:12:36.940Z,1.77
2024-02-07T13:14:40.591Z,2.03
2024-02-07T13:16:44.967Z,1.75
2024-02-07T13:18:48.824Z,1.50
2024-02-07T13:20:52.460Z,1.70
2024-02-07T13:22:55.877Z,1.63
2024-02-07T13:25:02.694Z,1.85
2024-02-07T13:27:07.645Z,1.77
2024-02-07T13:29:11.929Z,1.55
2024-02-07T13:31:15.639Z,2.08
2024-02-07T13:33:18.972Z,2.30
2024-02-07T13:35:23.716Z,1.73
2024-02-07T13:37:27.084Z,1.98
2024-02-07T13:39:30.515Z,2.13
2024-02-07T13:41:34.357Z,1.90
2024-02-07T13:43:37.899Z,2.25
2024-02-07T13:45:40.192Z,1.65
2024-02-07T13:47:43.579Z,1.60
2024-02-07T13:49:47.052Z,2.13
2024-02-07T13:51:50.945Z,1.80
2024-02-07T13:53:55.270Z,1.60
2024-02-07T13:55:59.098Z,1.58
2024-02-07T13:58:02.491Z,2.10
2024-02-07T14:00:07.322Z,2.08
2024-02-07T14:02:11.142Z,2.05
2024-02-07T14:04:14.646Z,2.05
2024-02-07T14:06:17.977Z,1.95
2024-02-07T14:08:22.896Z,1.75
2024-02-07T14:10:26.318Z,2.38
2024-02-07T14:12:30.060Z,1.85
2024-02-07T14:14:33.620Z,2.05
2024-02-07T14:16:37.767Z,1.90
2024-02-07T14:18:41.173Z,1.95
2024-02-07T14:20:44.715Z,2.05
2024-02-07T14:22:48.214Z,1.50
2024-02-07T14:24:52.876Z,1.88
2024-02-07T14:26:56.140Z,1.80
2024-02-07T14:31:04.323Z,1.75
2024-02-07T14:33:08.814Z,2.30
2024-02-07T14:35:12.928Z,1.70
2024-02-07T14:37:16.801Z,1.85
2024-02-07T14:39:23.546Z,1.75
2024-02-07T14:41:28.821Z,1.88
2024-02-07T14:43:31.912Z,2.00
2024-02-07T14:45:35.468Z,2.03
2024-02-07T14:47:38.982Z,2.33
2024-02-07T14:49:42.427Z,1.83
2024-02-07T14:51:45.824Z,2.00
2024-02-07T14:53:49.108Z,2.63
2024-02-07T14:55:54.060Z,2.88
2024-02-07T14:57:57.766Z,1.98
2024-02-07T15:00:01.468Z,2.33
2024-02-07T15:02:05.098Z,2.08
2024-02-07T15:04:08.383Z,2.00
2024-02-07T15:06:12.031Z,2.00
2024-02-07T15:08:16.385Z,2.15
2024-02-07T15:10:18.985Z,2.72
2024-02-07T15:12:23.481Z,2.15
2024-02-07T15:14:28.109Z,2.00
2024-02-07T15:16:32.981Z,1.73
2024-02-07T15:18:36.414Z,2.00
2024-02-07T15:20:41.721Z,2.17
2024-02-07T15:22:44.429Z,3.92
2024-02-07T15:24:47.697Z,3.28
2024-02-07T15:26:51.113Z,5.18
2024-02-07T15:28:54.414Z,4.22
2024-02-07T15:30:59.502Z,2.65
2024-02-07T15:33:03.756Z,2.60
2024-02-07T15:35:09.167Z,3.10
2024-02-07T15:37:12.542Z,3.00
2024-02-07T15:39:15.869Z,3.40
2024-02-07T15:41:19.438Z,2.58
2024-02-07T15:43:23.925Z,3.92
2024-02-07T15:45:27.287Z,3.45
2024-02-07T15:47:32.050Z,3.10
2024-02-07T15:49:38.663Z,3.88
2024-02-07T15:51:42.156Z,4.03
2024-02-07T15:53:45.395Z,2.95
2024-02-07T15:55:48.965Z,4.50
2024-02-07T15:57:51.800Z,4.95
2024-02-07T15:59:55.120Z,4.03
2024-02-07T16:01:58.933Z,3.25
2024-02-07T16:04:03.702Z,4.53
2024-02-07T16:06:07.213Z,2.28
2024-02-07T16:08:11.019Z,4.25
2024-02-07T16:10:15.478Z,2.60
2024-02-07T16:12:18.855Z,2.53
2024-02-07T16:14:22.791Z,2.92
2024-02-07T16:16:26.136Z,2.20
2024-02-07T16:18:32.072Z,5.18
2024-02-07T16:20:38.532Z,2.85
2024-02-07T16:22:42.012Z,3.90
2024-02-07T16:24:45.652Z,2.65
2024-02-07T16:26:49.297Z,1.92
2024-02-07T16:28:52.786Z,2.40
2024-02-07T16:30:56.037Z,2.47
2024-02-07T16:32:59.461Z,3.95
2024-02-07T16:35:04.506Z,3.65
2024-02-07T16:37:10.399Z,3.30
2024-02-07T16:39:13.949Z,1.88
2024-02-07T16:41:17.477Z,2.22
2024-02-07T16:43:21.647Z,2.75
2024-02-07T16:45:25.089Z,4.72
2024-02-07T16:47:28.951Z,3.17
2024-02-07T16:49:33.428Z,2.80
2024-02-07T16:51:37.331Z,2.42
2024-02-07T16:53:42.151Z,2.20
2024-02-07T16:55:45.669Z,2.10
2024-02-07T16:57:49.263Z,2.47
2024-02-07T16:59:52.768Z,2.38
2024-02-07T17:01:56.241Z,2.05
2024-02-07T17:03:59.634Z,2.10
2024-02-07T17:06:02.230Z,1.80
2024-02-07T17:08:07.157Z,2.30
2024-02-07T17:10:12.239Z,1.90
2024-02-07T17:12:14.606Z,2.17
2024-02-07T17:14:18.041Z,2.75
2024-02-07T17:16:21.436Z,2.20
2024-02-07T17:18:24.863Z,2.38
2024-02-07T17:20:28.278Z,3.05
2024-02-07T17:22:33.924Z,2.78
2024-02-07T17:24:41.239Z,2.30
2024-02-07T17:26:48.026Z,2.42
2024-02-07T17:28:53.717Z,2.17
2024-02-07T17:30:57.154Z,3.55
2024-02-07T17:33:01.801Z,19.02
2024-02-07T17:35:06.239Z,7.00
2024-02-07T17:37:09.774Z,5.00
2024-02-07T17:39:15.075Z,4.95
2024-02-07T17:41:19.528Z,2.92
2024-02-07T17:43:24.270Z,2.90
2024-02-07T17:45:27.556Z,2.80
2024-02-07T17:47:31.319Z,2.72
2024-02-07T17:49:34.741Z,2.50
2024-02-07T17:51:42.308Z,2.35
2024-02-07T17:53:45.654Z,2.55
2024-02-07T17:55:48.064Z,2.35
2024-02-07T17:57:52.247Z,2.65
2024-02-07T17:59:57.189Z,2.50
2024-02-07T18:02:01.134Z,3.05
2024-02-07T18:04:04.904Z,3.08
2024-02-07T18:06:08.968Z,2.80
2024-02-07T18:08:12.430Z,2.60
2024-02-07T18:10:16.066Z,2.22
2024-02-07T18:12:19.344Z,2.13
2024-02-07T18:14:22.813Z,2.10
2024-02-07T18:16:27.636Z,2.45
2024-02-07T18:18:31.085Z,2.20
2024-02-07T18:20:34.854Z,2.20
2024-02-07T18:22:38.796Z,2.47
2024-02-07T18:24:42.321Z,2.03
2024-02-07T18:26:48.172Z,1.98
2024-02-07T18:28:51.642Z,1.80
2024-02-07T18:30:54.976Z,1.80
2024-02-07T18:32:59.650Z,1.75
2024-02-07T18:35:03.046Z,2.15
2024-02-07T18:37:09.208Z,1.90
2024-02-07T18:39:12.602Z,1.50
2024-02-07T18:41:16.045Z,2.10
2024-02-07T18:43:19.336Z,1.80
2024-02-07T18:45:22.630Z,2.10
2024-02-07T18:47:26.504Z,1.90
2024-02-07T18:49:31.478Z,1.88
2024-02-07T18:51:37.494Z,1.45
2024-02-07T18:53:41.795Z,1.70
2024-02-07T18:55:45.221Z,1.88
2024-02-07T18:57:47.549Z,1.73
2024-02-07T18:59:50.790Z,2.40
2024-02-07T19:01:54.178Z,1.90
2024-02-07T19:03:57.470Z,1.70
2024-02-07T19:06:02.451Z,2.17
2024-02-07T19:08:06.752Z,2.10
2024-02-07T19:10:11.105Z,2.67
2024-02-07T19:12:14.372Z,2.30
2024-02-07T19:14:17.825Z,2.03
2024-02-07T19:16:22.635Z,1.95
2024-02-07T19:18:26.270Z,2.33
2024-02-07T19:20:29.723Z,2.40
2024-02-07T19:22:34.428Z,2.10
2024-02-07T19:24:38.080Z,2.53
2024-02-07T19:26:41.759Z,2.40
2024-02-07T19:28:45.128Z,2.30
2024-02-07T19:30:49.145Z,2.20
2024-02-07T19:32:51.518Z,2.28
2024-02-07T19:34:55.201Z,3.35
2024-02-07T19:36:58.957Z,2.70
2024-02-07T19:39:03.921Z,2.40
2024-02-07T19:41:07.420Z,2.63
2024-02-07T19:43:11.147Z,2.30
2024-02-07T19:45:14.407Z,2.40
2024-02-07T19:47:17.766Z,3.33
2024-02-07T19:49:21.148Z,2.60
2024-02-07T19:51:23.692Z,2.40
2024-02-07T19:53:27.012Z,2.60
2024-02-07T19:55:31.768Z,2.42
2024-02-07T19:57:35.046Z,2.33
2024-02-07T19:59:38.355Z,2.30
2024-02-07T20:01:41.714Z,2.40
2024-02-07T20:03:45.169Z,2.53
2024-02-07T20:05:49.799Z,3.20
2024-02-07T20:07:53.463Z,2.80
2024-02-07T20:09:57.524Z,2.80
2024-02-07T20:12:02.804Z,2.97
2024-02-07T20:14:05.545Z,2.58
2024-02-07T20:16:09.142Z,2.13
2024-02-07T20:18:14.537Z,2.70
2024-02-07T20:20:18.312Z,2.25
2024-02-07T20:22:21.950Z,2.85
2024-02-07T20:24:25.952Z,2.30
2024-02-07T20:26:30.732Z,2.53
2024-02-07T20:28:36.345Z,3.17
2024-02-07T20:30:40.624Z,2.28
2024-02-07T20:32:44.009Z,2.67
2024-02-07T20:34:47.496Z,2.92
2024-02-07T20:36:52.676Z,2.40
2024-02-07T20:38:56.004Z,2.45
2024-02-07T20:40:59.722Z,2.40
2024-02-07T20:43:03.728Z,2.70
2024-02-07T20:45:09.151Z,2.40
2024-02-07T20:47:12.735Z,2.58
2024-02-07T20:49:16.475Z,17.75
2024-02-07T20:51:19.864Z,5.22
2024-02-07T20:53:23.414Z,4.97
2024-02-07T20:55:26.718Z,3.28
2024-02-07T20:57:31.056Z,2.50
2024-02-07T20:59:34.577Z,2.90
2024-02-07T21:01:39.765Z,2.30
2024-02-07T21:03:43.035Z,2.30
2024-02-07T21:05:47.565Z,2.28
2024-02-07T21:07:51.030Z,2.38
2024-02-07T21:09:54.393Z,2.85
2024-02-07T21:11:57.652Z,2.20
2024-02-07T21:14:02.370Z,2.38
2024-02-07T21:16:06.548Z,2.25
2024-02-07T21:18:11.192Z,2.67
2024-02-07T21:20:16.199Z,5.18
2024-02-07T21:22:19.806Z,4.55
2024-02-07T21:24:23.063Z,4.80
2024-02-07T21:26:26.489Z,3.35
2024-02-07T21:28:29.805Z,2.40
2024-02-07T21:30:33.778Z,2.38
2024-02-07T21:32:39.424Z,2.50
2024-02-07T21:34:44.311Z,2.22
2024-02-07T21:36:48.835Z,2.10
2024-02-07T21:38:52.179Z,2.22
2024-02-07T21:40:55.498Z,2.20
2024-02-07T21:42:58.830Z,2.72
2024-02-07T21:45:04.047Z,2.38
2024-02-07T21:47:07.975Z,2.13
2024-02-07T21:49:11.316Z,2.08
2024-02-07T21:51:19.356Z,2.60
2024-02-07T21:53:23.730Z,2.28
2024-02-07T21:55:27.970Z,2.80
2024-02-07T21:57:31.451Z,2.30
2024-02-07T21:59:33.790Z,2.78
2024-02-07T22:01:37.188Z,2.63
2024-02-07T22:03:40.501Z,2.60
2024-02-07T22:05:43.735Z,2.58
2024-02-07T22:07:48.504Z,2.28
2024-02-07T22:09:51.952Z,2.95
2024-02-07T22:11:55.979Z,2.88
2024-02-07T22:13:59.246Z,3.10
2024-02-07T22:16:01.630Z,2.88
2024-02-07T22:18:05.559Z,2.50
2024-02-07T22:20:11.442Z,4.63
2024-02-07T22:22:14.813Z,3.50
2024-02-07T22:24:19.797Z,2.85
2024-02-07T22:26:22.044Z,2.80
2024-02-07T22:28:25.388Z,2.97
2024-02-07T22:30:28.637Z,2.47
2024-02-07T22:32:31.129Z,2.78
2024-02-07T22:34:35.360Z,4.32
2024-02-07T22:36:38.806Z,2.83
2024-02-07T22:38:41.280Z,3.60
2024-02-07T22:40:46.342Z,2.60
2024-02-07T22:42:50.044Z,2.13
2024-02-07T22:44:53.433Z,2.10
2024-02-07T22:46:57.788Z,2.63
2024-02-07T22:49:01.179Z,2.08
2024-02-07T22:51:04.743Z,3.13
2024-02-07T22:53:08.230Z,2.70
2024-02-07T22:55:11.613Z,2.47
2024-02-07T22:57:18.187Z,2.38
2024-02-07T22:59:23.196Z,2.75
2024-02-07T23:01:27.476Z,3.10
2024-02-07T23:03:29.895Z,2.25
2024-02-07T23:05:33.296Z,2.28
2024-02-07T23:07:35.585Z,1.98
2024-02-07T23:09:39.011Z,2.05
2024-02-07T23:11:42.264Z,2.10
2024-02-07T23:13:47.047Z,4.35
2024-02-07T23:15:50.743Z,5.28
2024-02-07T23:17:54.184Z,2.35
2024-02-07T23:19:56.523Z,3.33
2024-02-07T23:21:59.932Z,1.70
2024-02-07T23:24:03.210Z,2.00
2024-02-07T23:26:06.826Z,2.53
2024-02-07T23:28:10.972Z,2.00
2024-02-07T23:30:16.522Z,1.50
2024-02-07T23:32:19.800Z,2.10
2024-02-07T23:34:23.494Z,1.52
2024-02-07T23:36:26.845Z,2.15
2024-02-07T23:38:30.829Z,1.90
2024-02-07T23:40:34.095Z,2.78
2024-02-07T23:42:36.455Z,1.80
2024-02-07T23:44:39.740Z,1.65
2024-02-07T23:46:44.471Z,1.38
2024-02-07T23:48:48.069Z,1.60
2024-02-07T23:50:51.558Z,1.60
2024-02-07T23:52:55.034Z,1.42
2024-02-07T23:54:58.362Z,1.50
2024-02-07T23:57:02.237Z,1.63
2024-02-07T23:59:05.718Z,1.30
